Time;durP1;ratioP1;P1;durP2;ratioP2;P2;SDS_P1;SDS_P2;PMS_P1;PMS_P2;Temp;Humidity;BMP_temperature;BMP_pressure;BME280_temperature;BME280_humidity;BME280_pressure;Samples;Min_cycle;Max_cycle;Signal;HPM_P1;HPM_P2
2023/06/14 00:01:59;;;;;;;4.13;1.92;;;;;26.00;101423.00;;;;5088550;28;20279;-80
2023/06/14 00:04:28;;;;;;;3.50;2.30;;;;;25.90;101416.00;;;;5088359;28;20216;-80
2023/06/14 00:06:56;;;;;;;7.68;1.98;;;;;25.90;101425.00;;;;5088335;28;20187;-80
2023/06/14 00:09:23;;;;;;;4.45;2.28;;;;;25.90;101424.00;;;;5088059;28;20300;-80
2023/06/14 00:11:51;;;;;;;2.25;2.00;;;;;25.90;101420.00;;;;5071196;28;20211;-80
2023/06/14 00:14:18;;;;;;;4.38;2.50;;;;;25.90;101418.00;;;;5070375;28;20214;-80
2023/06/14 00:16:45;;;;;;;1.95;1.70;;;;;25.80;101423.00;;;;5072742;28;20210;-80
2023/06/14 00:19:12;;;;;;;3.00;1.70;;;;;25.80;101429.00;;;;5071893;28;20226;-81
2023/06/14 00:21:41;;;;;;;4.65;1.70;;;;;25.80;101425.00;;;;5071722;28;20201;-81
2023/06/14 00:24:09;;;;;;;3.17;2.17;;;;;25.80;101428.00;;;;5072604;28;20687;-81
2023/06/14 00:26:36;;;;;;;4.03;2.03;;;;;25.70;101423.00;;;;5072038;28;20210;-80
2023/06/14 00:29:03;;;;;;;2.22;1.58;;;;;25.70;101427.00;;;;5072608;28;20206;-80
2023/06/14 00:31:31;;;;;;;11.00;2.45;;;;;25.70;101421.00;;;;5073038;28;20655;-81
2023/06/14 00:33:58;;;;;;;4.40;1.90;;;;;25.70;101427.00;;;;5092025;28;20237;-80
2023/06/14 00:36:25;;;;;;;6.22;2.25;;;;;25.70;101423.00;;;;5092298;28;20209;-80
2023/06/14 00:38:54;;;;;;;2.40;1.60;;;;;25.60;101424.00;;;;5091462;28;20230;-80
2023/06/14 00:41:21;;;;;;;3.65;2.17;;;;;25.60;101423.00;;;;5092010;28;20674;-80
2023/06/14 00:43:49;;;;;;;3.58;2.08;;;;;25.60;101421.00;;;;5090896;28;20209;-80
2023/06/14 00:46:16;;;;;;;2.78;1.80;;;;;25.60;101421.00;;;;5084696;28;20568;-80
2023/06/14 00:48:43;;;;;;;2.47;1.90;;;;;25.60;101417.00;;;;5091597;28;20582;-80
2023/06/14 00:51:11;;;;;;;6.07;1.98;;;;;25.50;101422.00;;;;5091811;28;20288;-80
2023/06/14 00:53:39;;;;;;;6.15;2.22;;;;;25.50;101421.00;;;;5091962;28;20194;-80
2023/06/14 00:56:08;;;;;;;2.65;2.03;;;;;25.50;101419.00;;;;5091973;28;20197;-80
2023/06/14 00:58:35;;;;;;;2.42;1.92;;;;;25.50;101423.00;;;;5092027;28;20323;-80
2023/06/14 01:01:03;;;;;;;4.50;2.15;;;;;25.50;101420.00;;;;5089704;28;20205;-81
2023/06/14 01:03:32;;;;;;;3.90;2.20;;;;;25.50;101428.00;;;;5071264;28;20202;-79
2023/06/14 01:06:10;;;;;;;3.65;1.75;;;;;25.40;101421.00;;;;5071086;28;20246;-80
2023/06/14 01:08:48;;;;;;;2.83;2.15;;;;;25.40;101417.00;;;;5071723;28;20272;-79
2023/06/14 01:11:22;;;;;;;3.65;2.00;;;;;25.30;101420.00;;;;5070723;28;20195;-80
2023/06/14 01:13:51;;;;;;;3.47;2.13;;;;;25.30;101425.00;;;;5071421;28;20199;-80
2023/06/14 01:16:18;;;;;;;2.30;1.38;;;;;25.30;101421.00;;;;5071392;28;20199;-80
2023/06/14 01:18:48;;;;;;;3.10;2.05;;;;;25.30;101420.00;;;;5071379;28;20312;-80
2023/06/14 01:21:22;;;;;;;1.92;1.52;;;;;25.20;101422.00;;;;5071592;28;20281;-80
2023/06/14 01:23:52;;;;;;;4.28;1.88;;;;;25.30;101423.00;;;;5071413;28;20187;-81
2023/06/14 01:26:21;;;;;;;4.10;2.00;;;;;25.30;101423.00;;;;5071033;28;20699;-80
2023/06/14 01:28:49;;;;;;;3.97;2.00;;;;;25.20;101415.00;;;;5070979;28;20187;-80
2023/06/14 01:31:21;;;;;;;3.10;2.25;;;;;25.20;101416.00;;;;5071022;28;20226;-80
2023/06/14 01:33:50;;;;;;;2.63;1.98;;;;;25.20;101416.00;;;;5071127;28;20252;-80
2023/06/14 01:36:19;;;;;;;4.68;1.92;;;;;25.20;101421.00;;;;5070902;28;20206;-80
2023/06/14 01:38:48;;;;;;;3.25;2.30;;;;;25.20;101421.00;;;;5070430;28;20585;-80
2023/06/14 01:41:17;;;;;;;2.65;1.92;;;;;25.10;101430.00;;;;5070853;28;20254;-80
2023/06/14 01:43:46;;;;;;;4.55;2.05;;;;;25.10;101421.00;;;;5082019;28;20221;-79
2023/06/14 01:46:16;;;;;;;3.70;2.35;;;;;25.10;101426.00;;;;5091305;28;20213;-80
2023/06/14 01:48:44;;;;;;;2.20;1.92;;;;;25.10;101422.00;;;;5090160;28;20202;-80
2023/06/14 01:51:11;;;;;;;5.20;2.58;;;;;25.10;101422.00;;;;5091439;28;20209;-80
2023/06/14 01:53:38;;;;;;;2.60;2.03;;;;;25.00;101420.00;;;;5090282;28;20210;-80
2023/06/14 01:56:06;;;;;;;3.70;2.38;;;;;25.00;101420.00;;;;5090994;28;20198;-80
2023/06/14 01:58:35;;;;;;;5.22;2.53;;;;;25.00;101414.00;;;;5089873;28;20222;-80
2023/06/14 02:01:03;;;;;;;2.42;1.85;;;;;25.00;101414.00;;;;5090579;28;20199;-81
2023/06/14 02:03:31;;;;;;;2.97;2.33;;;;;24.90;101414.00;;;;5090837;28;20198;-80
2023/06/14 02:05:58;;;;;;;2.58;2.08;;;;;24.90;101419.00;;;;5090894;28;20602;-80
2023/06/14 02:08:25;;;;;;;4.78;1.90;;;;;24.90;101419.00;;;;5090199;28;20739;-80
2023/06/14 02:10:52;;;;;;;2.17;1.70;;;;;24.90;101414.00;;;;5073030;28;20199;-80
2023/06/14 02:13:20;;;;;;;4.70;1.77;;;;;24.80;101415.00;;;;5069793;28;20191;-80
2023/06/14 02:15:51;;;;;;;4.75;2.28;;;;;24.80;101417.00;;;;5069328;28;20210;-80
2023/06/14 02:18:18;;;;;;;2.70;1.95;;;;;24.80;101414.00;;;;5070454;28;20225;-80
2023/06/14 02:20:45;;;;;;;12.23;2.42;;;;;24.70;101403.00;;;;5070154;28;20207;-80
2023/06/14 02:23:12;;;;;;;4.20;2.00;;;;;24.70;101405.00;;;;5069696;28;20205;-80
2023/06/14 02:25:40;;;;;;;3.38;2.30;;;;;24.70;101405.00;;;;5069977;28;20408;-80
2023/06/14 02:28:07;;;;;;;3.50;1.75;;;;;24.70;101410.00;;;;5069461;28;20238;-80
2023/06/14 02:30:34;;;;;;;3.88;2.00;;;;;24.60;101414.00;;;;5068942;28;20206;-80
2023/06/14 02:33:04;;;;;;;3.70;2.20;;;;;24.60;101416.00;;;;5084222;28;20194;-80
2023/06/14 02:35:31;;;;;;;3.97;1.85;;;;;24.60;101418.00;;;;5088929;28;20194;-80
2023/06/14 02:37:59;;;;;;;1.95;1.73;;;;;24.50;101417.00;;;;5088816;28;20198;-81
2023/06/14 02:40:26;;;;;;;2.40;2.20;;;;;24.50;101422.00;;;;5089561;28;20205;-80
2023/06/14 02:42:53;;;;;;;2.13;1.88;;;;;24.50;101414.00;;;;5088995;28;20190;-80
2023/06/14 02:45:21;;;;;;;3.17;2.15;;;;;24.50;101413.00;;;;5089662;28;20194;-80
2023/06/14 02:47:48;;;;;;;2.00;1.70;;;;;24.40;101417.00;;;;5090087;28;20660;-80
2023/06/14 02:50:17;;;;;;;3.33;2.00;;;;;24.40;101420.00;;;;5088750;28;20672;-80
2023/06/14 02:52:45;;;;;;;3.97;1.92;;;;;24.40;101423.00;;;;5089355;28;20713;-80
2023/06/14 02:55:12;;;;;;;5.90;2.17;;;;;24.30;101424.00;;;;5089598;28;20202;-80
2023/06/14 02:57:39;;;;;;;3.88;1.95;;;;;24.30;101424.00;;;;5088448;28;20209;-79
2023/06/14 03:00:12;;;;;;;2.83;1.65;;;;;24.30;101427.00;;;;5086545;28;20406;-80
2023/06/14 03:02:39;;;;;;;2.50;1.95;;;;;24.20;101423.00;;;;5068505;28;20218;-80
2023/06/14 03:05:09;;;;;;;5.15;2.25;;;;;24.20;101434.00;;;;5068238;28;20794;-80
2023/06/14 03:07:40;;;;;;;2.45;1.70;;;;;24.20;101430.00;;;;5068089;28;20230;-79
2023/06/14 03:10:10;;;;;;;5.68;2.38;;;;;24.20;101438.00;;;;5067962;28;20684;-80
2023/06/14 03:12:37;;;;;;;2.78;2.17;;;;;24.10;101436.00;;;;5067974;28;20264;-80
2023/06/14 03:15:05;;;;;;;3.38;2.22;;;;;24.10;101435.00;;;;5069075;28;20268;-80
2023/06/14 03:17:33;;;;;;;3.20;1.90;;;;;24.10;101434.00;;;;5067779;28;20214;-80
2023/06/14 03:20:00;;;;;;;2.95;2.28;;;;;24.00;101436.00;;;;5068714;28;20308;-80
2023/06/14 03:22:28;;;;;;;4.57;2.00;;;;;24.00;101444.00;;;;5068223;28;20625;-80
2023/06/14 03:24:57;;;;;;;3.65;1.83;;;;;24.00;101440.00;;;;5068476;28;20207;-80
2023/06/14 03:27:24;;;;;;;2.83;2.08;;;;;23.90;101441.00;;;;5068352;28;20210;-80
2023/06/14 03:29:51;;;;;;;3.28;1.98;;;;;23.90;101448.00;;;;5067968;28;20576;-80
2023/06/14 03:32:18;;;;;;;3.40;2.45;;;;;23.90;101455.00;;;;5076079;28;20719;-80
2023/06/14 03:34:46;;;;;;;3.75;2.22;;;;;23.80;101451.00;;;;5087541;28;20202;-80
2023/06/14 03:37:13;;;;;;;2.83;1.70;;;;;23.80;101447.00;;;;5088693;28;20209;-80
2023/06/14 03:39:45;;;;;;;2.60;1.95;;;;;23.80;101454.00;;;;5087784;28;20238;-80
2023/06/14 03:42:14;;;;;;;3.55;2.25;;;;;23.70;101460.00;;;;5088700;28;20210;-80
2023/06/14 03:44:42;;;;;;;3.20;2.00;;;;;23.70;101463.00;;;;5086966;28;20259;-80
2023/06/14 03:47:09;;;;;;;2.83;2.05;;;;;23.70;101459.00;;;;5087853;28;20214;-80
2023/06/14 03:49:37;;;;;;;2.92;1.70;;;;;23.70;101460.00;;;;5087479;28;20190;-79
2023/06/14 03:52:05;;;;;;;2.70;1.48;;;;;23.60;101458.00;;;;5077664;28;20260;-80
2023/06/14 03:54:32;;;;;;;1.95;1.42;;;;;23.60;101460.00;;;;5067871;28;20194;-80
2023/06/14 03:57:00;;;;;;;2.42;1.88;;;;;23.60;101465.00;;;;5068042;28;20225;-79
2023/06/14 03:59:28;;;;;;;6.18;2.40;;;;;23.60;101470.00;;;;5066597;28;20234;-79
2023/06/14 04:01:56;;;;;;;5.07;1.83;;;;;23.60;101465.00;;;;5082604;28;20213;-80
2023/06/14 04:04:29;;;;;;;4.00;2.40;;;;;23.60;101476.00;;;;5087997;28;20601;-80
2023/06/14 04:06:58;;;;;;;2.75;1.83;;;;;23.60;101464.00;;;;5087973;28;20593;-80
2023/06/14 04:09:25;;;;;;;4.70;2.53;;;;;23.50;101478.00;;;;5073601;28;20230;-79
2023/06/14 04:11:53;;;;;;;2.25;1.92;;;;;23.50;101476.00;;;;5068004;28;20199;-80
2023/06/14 04:14:20;;;;;;;2.42;1.80;;;;;23.50;101477.00;;;;5067224;28;20669;-80
2023/06/14 04:16:50;;;;;;;3.08;2.20;;;;;23.50;101479.00;;;;5068108;28;20199;-81
2023/06/14 04:19:17;;;;;;;3.97;2.10;;;;;23.50;101487.00;;;;5068081;28;20222;-80
2023/06/14 04:21:45;;;;;;;4.50;2.38;;;;;23.50;101490.00;;;;5068414;28;20195;-80
2023/06/14 04:24:13;;;;;;;5.50;2.17;;;;;23.50;101481.00;;;;5068037;28;20209;-80
2023/06/14 04:26:40;;;;;;;7.50;2.25;;;;;23.50;101477.00;;;;5068461;28;20297;-80
2023/06/14 04:29:08;;;;;;;4.30;2.33;;;;;23.60;101483.00;;;;5068319;28;20215;-80
2023/06/14 04:31:37;;;;;;;3.95;2.28;;;;;23.60;101483.00;;;;5070390;28;20223;-80
2023/06/14 04:34:06;;;;;;;2.92;1.80;;;;;23.60;101485.00;;;;5088396;28;20186;-80
2023/06/14 04:36:36;;;;;;;4.03;2.17;;;;;23.60;101488.00;;;;5087746;28;20621;-80
2023/06/14 04:39:04;;;;;;;2.75;1.70;;;;;23.60;101488.00;;;;5088279;28;20218;-80
2023/06/14 04:41:32;;;;;;;2.38;1.90;;;;;23.60;101488.00;;;;5083803;28;20225;-80
2023/06/14 04:44:01;;;;;;;4.28;1.90;;;;;23.60;101491.00;;;;5071008;28;20202;-80
2023/06/14 04:46:30;;;;;;;4.10;2.00;;;;;23.60;101492.00;;;;5087953;28;20190;-81
2023/06/14 04:48:57;;;;;;;5.15;2.42;;;;;23.60;101493.00;;;;5087701;28;20205;-80
2023/06/14 04:51:29;;;;;;;5.35;2.17;;;;;23.60;101494.00;;;;5087182;28;20195;-80
2023/06/14 04:53:58;;;;;;;4.20;1.95;;;;;23.70;101491.00;;;;5087693;28;20205;-80
2023/06/14 04:56:26;;;;;;;3.72;1.65;;;;;23.70;101495.00;;;;5087874;28;20207;-80
2023/06/14 04:58:53;;;;;;;2.58;2.08;;;;;23.70;101500.00;;;;5086407;28;20210;-81
2023/06/14 05:01:22;;;;;;;2.80;2.08;;;;;23.70;101501.00;;;;5079623;28;20282;-81
2023/06/14 05:03:50;;;;;;;2.33;1.88;;;;;23.80;101505.00;;;;5091695;28;20202;-80
2023/06/14 05:06:18;;;;;;;4.15;2.40;;;;;23.80;101501.00;;;;5091603;28;20209;-80
2023/06/14 05:08:46;;;;;;;4.78;2.05;;;;;23.80;101502.00;;;;5091996;28;20198;-80
2023/06/14 05:11:14;;;;;;;7.47;1.92;;;;;23.80;101505.00;;;;5090988;28;20202;-80
2023/06/14 05:13:41;;;;;;;4.30;1.90;;;;;23.80;101512.00;;;;5091697;28;20206;-80
2023/06/14 05:16:09;;;;;;;3.13;1.65;;;;;23.90;101508.00;;;;5088083;28;20252;-81
2023/06/14 05:18:37;;;;;;;6.25;2.53;;;;;23.90;101513.00;;;;5071165;28;20191;-80
2023/06/14 05:21:05;;;;;;;2.92;2.10;;;;;24.00;101507.00;;;;5071036;28;20226;-80
2023/06/14 05:23:32;;;;;;;3.47;2.00;;;;;24.00;101509.00;;;;5070552;28;20203;-80
2023/06/14 05:26:02;;;;;;;4.68;2.30;;;;;24.00;101507.00;;;;5070962;28;20205;-80
2023/06/14 05:28:30;;;;;;;11.65;2.75;;;;;24.10;101513.00;;;;5070773;28;20209;-82
2023/06/14 05:30:58;;;;;;;2.85;1.75;;;;;24.10;101518.00;;;;5071151;28;20238;-80
2023/06/14 05:33:25;;;;;;;5.22;2.17;;;;;24.10;101510.00;;;;5087968;28;20194;-80
2023/06/14 05:35:52;;;;;;;3.25;2.28;;;;;24.20;101515.00;;;;5091490;28;20190;-81
2023/06/14 05:38:20;;;;;;;9.02;2.45;;;;;24.20;101515.00;;;;5090527;28;20201;-81
2023/06/14 05:40:47;;;;;;;5.47;2.22;;;;;24.30;101518.00;;;;5091053;28;20226;-81
2023/06/14 05:43:16;;;;;;;6.10;2.50;;;;;24.30;101520.00;;;;5089948;28;20208;-82
2023/06/14 05:45:43;;;;;;;3.67;2.00;;;;;24.40;101521.00;;;;5089699;28;20664;-81
2023/06/14 05:48:11;;;;;;;2.92;1.88;;;;;24.50;101525.00;;;;5091204;28;20206;-80
2023/06/14 05:50:38;;;;;;;2.90;1.70;;;;;24.50;101529.00;;;;5089775;28;20217;-80
2023/06/14 05:53:05;;;;;;;4.43;2.20;;;;;24.60;101534.00;;;;5090141;28;20691;-79
2023/06/14 05:55:33;;;;;;;5.65;2.25;;;;;24.60;101534.00;;;;5090029;28;20202;-80
2023/06/14 05:58:00;;;;;;;4.95;1.90;;;;;24.70;101536.00;;;;5090307;28;20224;-80
2023/06/14 06:00:29;;;;;;;4.68;2.17;;;;;24.80;101538.00;;;;5089302;28;20226;-79
2023/06/14 06:02:57;;;;;;;3.70;2.20;;;;;24.80;101546.00;;;;5090748;28;20536;-80
2023/06/14 06:05:25;;;;;;;3.03;1.70;;;;;24.90;101544.00;;;;5089712;28;20264;-80
2023/06/14 06:07:52;;;;;;;3.00;1.90;;;;;25.00;101544.00;;;;5080056;28;20242;-81
2023/06/14 06:10:20;;;;;;;2.65;1.88;;;;;25.00;101552.00;;;;5069661;28;20203;-80
2023/06/14 06:12:48;;;;;;;3.47;2.08;;;;;25.10;101546.00;;;;5068561;28;20199;-80
2023/06/14 06:15:15;;;;;;;4.95;1.90;;;;;25.10;101553.00;;;;5069648;28;20202;-80
2023/06/14 06:17:44;;;;;;;2.83;1.50;;;;;25.20;101554.00;;;;5069220;28;20207;-80
2023/06/14 06:20:12;;;;;;;2.90;1.70;;;;;25.30;101548.00;;;;5069706;28;20222;-80
2023/06/14 06:22:40;;;;;;;2.97;2.13;;;;;25.40;101548.00;;;;5069154;28;20763;-80
2023/06/14 06:25:08;;;;;;;4.20;2.00;;;;;25.50;101555.00;;;;5070513;28;20198;-80
2023/06/14 06:27:37;;;;;;;4.60;2.20;;;;;25.50;101555.00;;;;5068906;28;20203;-80
2023/06/14 06:30:05;;;;;;;4.95;1.80;;;;;25.60;101556.00;;;;5069194;28;20210;-80
2023/06/14 06:32:32;;;;;;;2.45;2.15;;;;;25.70;101550.00;;;;5078784;28;20226;-80
2023/06/14 06:35:01;;;;;;;2.97;1.85;;;;;25.80;101560.00;;;;5089562;28;20679;-81
2023/06/14 06:37:28;;;;;;;3.05;1.85;;;;;25.80;101553.00;;;;5089030;28;20891;-81
2023/06/14 06:39:55;;;;;;;3.08;2.03;;;;;25.90;101556.00;;;;5089193;28;20222;-80
2023/06/14 06:42:23;;;;;;;2.30;1.55;;;;;26.00;101556.00;;;;5087646;28;20604;-81
2023/06/14 06:44:50;;;;;;;2.88;1.55;;;;;26.10;101565.00;;;;5089122;28;20550;-79
2023/06/14 06:47:17;;;;;;;4.68;2.10;;;;;26.10;101571.00;;;;5089304;28;20213;-80
2023/06/14 06:49:45;;;;;;;6.05;2.22;;;;;26.20;101571.00;;;;5088897;28;20194;-81
2023/06/14 06:52:13;;;;;;;4.72;1.90;;;;;26.30;101583.00;;;;5089189;28;20205;-81
2023/06/14 06:54:41;;;;;;;3.22;1.95;;;;;26.40;101577.00;;;;5088147;28;20194;-80
2023/06/14 06:57:08;;;;;;;4.13;1.80;;;;;26.50;101590.00;;;;5089241;28;20218;-80
2023/06/14 06:59:36;;;;;;;1.80;1.52;;;;;26.60;101584.00;;;;5073868;28;20643;-80
2023/06/14 07:02:04;;;;;;;1.92;1.73;;;;;26.60;101590.00;;;;5081695;28;20210;-80
2023/06/14 07:04:32;;;;;;;4.50;2.15;;;;;26.70;101591.00;;;;5087332;28;20619;-80
2023/06/14 07:06:59;;;;;;;2.22;1.45;;;;;26.80;101597.00;;;;5089688;28;20248;-81
2023/06/14 07:09:28;;;;;;;7.35;2.10;;;;;26.90;101596.00;;;;5088020;28;20195;-80
2023/06/14 07:11:55;;;;;;;2.80;1.88;;;;;27.00;101591.00;;;;5088145;28;20217;-80
2023/06/14 07:14:24;;;;;;;2.90;2.08;;;;;27.10;101595.00;;;;5088414;28;20203;-81
2023/06/14 07:16:51;;;;;;;3.88;1.80;;;;;27.20;101600.00;;;;5072280;28;20218;-81
2023/06/14 07:19:18;;;;;;;5.57;2.10;;;;;27.30;101597.00;;;;5068419;28;20207;-81
2023/06/14 07:21:45;;;;;;;2.22;1.98;;;;;27.30;101602.00;;;;5069333;28;20202;-81
2023/06/14 07:24:13;;;;;;;4.80;2.00;;;;;27.40;101604.00;;;;5069071;28;20187;-81
2023/06/14 07:26:41;;;;;;;2.13;1.70;;;;;27.50;101602.00;;;;5068644;28;20725;-81
2023/06/14 07:29:09;;;;;;;3.88;2.40;;;;;27.60;101613.00;;;;5068538;28;20203;-81
2023/06/14 07:31:36;;;;;;;2.42;2.08;;;;;27.70;101609.00;;;;5070907;28;20231;-79
2023/06/14 07:34:03;;;;;;;2.58;2.03;;;;;27.80;101599.00;;;;5088318;28;20213;-80
2023/06/14 07:36:31;;;;;;;3.78;1.95;;;;;27.80;101607.00;;;;5088893;28;20202;-79
2023/06/14 07:38:58;;;;;;;2.63;1.70;;;;;27.90;101609.00;;;;5088936;28;20198;-80
2023/06/14 07:41:25;;;;;;;2.03;1.70;;;;;28.00;101614.00;;;;5088637;28;20225;-79
2023/06/14 07:43:55;;;;;;;6.57;1.80;;;;;28.10;101621.00;;;;5088596;28;20579;-81
2023/06/14 07:46:22;;;;;;;6.65;1.58;;;;;28.20;101621.00;;;;5088575;28;20282;-79
2023/06/14 07:48:49;;;;;;;2.33;2.00;;;;;28.30;101622.00;;;;5088345;28;20209;-80
2023/06/14 07:51:17;;;;;;;6.55;1.90;;;;;28.40;101625.00;;;;5088693;28;20198;-79
2023/06/14 07:53:44;;;;;;;3.85;1.52;;;;;28.50;101624.00;;;;5088593;28;20209;-79
2023/06/14 07:56:12;;;;;;;2.53;1.60;;;;;28.60;101618.00;;;;5088441;28;20614;-80
2023/06/14 07:58:39;;;;;;;2.00;1.40;;;;;28.70;101624.00;;;;5088325;28;20209;-80
2023/06/14 08:01:07;;;;;;;2.95;1.80;;;;;28.80;101620.00;;;;5088511;28;20229;-79
2023/06/14 08:03:35;;;;;;;1.85;1.60;;;;;29.00;101630.00;;;;5088591;28;20403;-80
2023/06/14 08:06:02;;;;;;;2.42;1.63;;;;;29.00;101641.00;;;;5086544;28;20250;-79
2023/06/14 08:08:30;;;;;;;3.17;1.88;;;;;29.10;101634.00;;;;5068285;28;20226;-79
2023/06/14 08:10:57;;;;;;;1.83;1.45;;;;;29.20;101638.00;;;;5068498;28;20238;-79
2023/06/14 08:13:25;;;;;;;1.58;1.38;;;;;29.30;101639.00;;;;5067831;28;20203;-79
2023/06/14 08:15:52;;;;;;;2.25;1.40;;;;;29.40;101640.00;;;;5068159;28;20264;-79
2023/06/14 08:18:21;;;;;;;2.67;0.98;;;;;29.60;101634.00;;;;5068571;28;20203;-78
2023/06/14 08:20:48;;;;;;;1.98;1.40;;;;;29.70;101634.00;;;;5068162;28;20227;-78
2023/06/14 08:23:15;;;;;;;2.22;1.38;;;;;29.90;101634.00;;;;5068834;28;20211;-79
2023/06/14 08:25:43;;;;;;;1.75;1.38;;;;;30.00;101635.00;;;;5067265;28;20234;-80
2023/06/14 08:28:10;;;;;;;5.43;1.48;;;;;30.10;101642.00;;;;5068750;28;20596;-79
2023/06/14 08:30:37;;;;;;;1.85;1.40;;;;;30.20;101643.00;;;;5067883;28;20646;-79
2023/06/14 08:33:05;;;;;;;3.55;1.25;;;;;30.30;101643.00;;;;5083097;28;20190;-79
2023/06/14 08:35:36;;;;;;;1.35;1.23;;;;;30.40;101639.00;;;;5090328;28;20247;-79
2023/06/14 08:38:04;;;;;;;3.03;1.17;;;;;30.50;101639.00;;;;5092639;28;20300;-80
2023/06/14 08:40:32;;;;;;;3.17;1.17;;;;;30.60;101638.00;;;;5090952;28;20305;-80
2023/06/14 08:42:59;;;;;;;1.13;0.93;;;;;30.70;101629.00;;;;5091771;28;20206;-79
2023/06/14 08:45:26;;;;;;;4.18;1.40;;;;;30.80;101634.00;;;;5091784;28;20193;-79
2023/06/14 08:47:57;;;;;;;1.00;0.90;;;;;30.90;101629.00;;;;5092400;28;20205;-80
2023/06/14 08:50:26;;;;;;;3.15;1.48;;;;;31.00;101634.00;;;;5091885;28;20202;-79
2023/06/14 08:52:57;;;;;;;3.72;1.20;;;;;31.00;101634.00;;;;5091778;28;20186;-80
2023/06/14 08:55:26;;;;;;;1.77;1.05;;;;;31.10;101634.00;;;;5091647;28;20739;-79
2023/06/14 08:57:55;;;;;;;2.78;1.15;;;;;31.20;101636.00;;;;5091082;28;20209;-79
2023/06/14 09:00:24;;;;;;;2.65;1.40;;;;;31.30;101633.00;;;;5091281;28;20217;-79
2023/06/14 09:02:55;;;;;;;1.55;1.20;;;;;31.40;101644.00;;;;5091457;28;20247;-81
2023/06/14 09:05:23;;;;;;;1.33;1.17;;;;;31.40;101641.00;;;;5091016;28;20217;-79
2023/06/14 09:07:51;;;;;;;2.70;0.98;;;;;31.50;101645.00;;;;5091378;28;20202;-79
2023/06/14 09:10:21;;;;;;;1.77;1.02;;;;;31.60;101645.00;;;;5090829;28;20721;-80
2023/06/14 09:12:48;;;;;;;3.40;1.33;;;;;31.60;101655.00;;;;5091468;28;20584;-80
2023/06/14 09:15:16;;;;;;;2.50;1.50;;;;;31.70;101649.00;;;;5078834;28;20207;-79
2023/06/14 09:17:44;;;;;;;1.55;1.20;;;;;31.70;101654.00;;;;5071138;28;20206;-79
2023/06/14 09:20:13;;;;;;;1.42;1.30;;;;;31.80;101657.00;;;;5071746;28;20199;-79
2023/06/14 09:22:41;;;;;;;4.10;1.00;;;;;31.90;101654.00;;;;5070890;28;20198;-80
2023/06/14 09:25:09;;;;;;;1.30;0.95;;;;;31.90;101655.00;;;;5071119;28;20202;-82
2023/06/14 09:27:39;;;;;;;6.72;2.17;;;;;31.90;101659.00;;;;5070776;28;20206;-80
2023/06/14 09:30:09;;;;;;;2.80;1.40;;;;;32.00;101659.00;;;;5070347;28;20210;-79
2023/06/14 09:32:39;;;;;;;2.67;1.40;;;;;32.00;101661.00;;;;5070803;28;20234;-81
2023/06/14 09:35:08;;;;;;;1.15;1.02;;;;;32.10;101647.00;;;;5071154;28;20205;-80
2023/06/14 09:37:37;;;;;;;4.00;1.25;;;;;32.20;101644.00;;;;5070025;28;20199;-79
2023/06/14 09:40:06;;;;;;;1.67;1.15;;;;;32.20;101649.00;;;;5070487;28;20203;-80
2023/06/14 09:42:35;;;;;;;1.33;1.02;;;;;32.30;101651.00;;;;5070361;28;20544;-80
2023/06/14 09:45:04;;;;;;;1.30;1.00;;;;;32.40;101658.00;;;;5069994;28;20248;-79
2023/06/14 09:47:32;;;;;;;2.25;0.98;;;;;32.50;101660.00;;;;5068678;28;20657;-80
2023/06/14 09:50:00;;;;;;;1.98;1.10;;;;;32.50;101658.00;;;;5070296;28;20210;-80
2023/06/14 09:52:29;;;;;;;1.77;1.10;;;;;32.50;101658.00;;;;5078196;28;20704;-80
2023/06/14 09:54:56;;;;;;;1.27;0.93;;;;;32.50;101654.00;;;;5091435;28;20668;-80
2023/06/14 09:57:25;;;;;;;1.52;1.02;;;;;32.60;101655.00;;;;5090593;28;20667;-80
2023/06/14 09:59:59;;;;;;;1.02;0.85;;;;;32.60;101639.00;;;;5090608;28;20255;-79
2023/06/14 10:02:33;;;;;;;1.92;1.13;;;;;32.70;101643.00;;;;5090338;28;20651;-80
2023/06/14 10:05:06;;;;;;;0.93;0.80;;;;;32.80;101643.00;;;;5087755;28;20222;-80
2023/06/14 10:07:39;;;;;;;1.52;1.20;;;;;32.80;101653.00;;;;5069660;28;20260;-79
2023/06/14 10:10:08;;;;;;;2.17;0.90;;;;;32.80;101650.00;;;;5070452;28;20676;-79
2023/06/14 10:12:35;;;;;;;1.73;1.27;;;;;32.80;101639.00;;;;5070086;28;20206;-78
2023/06/14 10:15:04;;;;;;;2.05;1.10;;;;;32.90;101641.00;;;;5070209;28;20207;-79
2023/06/14 10:17:41;;;;;;;1.33;1.13;;;;;32.80;101637.00;;;;5070056;28;20191;-79
2023/06/14 10:20:19;;;;;;;2.53;1.30;;;;;32.90;101645.00;;;;5070435;28;20575;-78
2023/06/14 10:22:52;;;;;;;1.70;1.10;;;;;33.00;101661.00;;;;5070114;28;20229;-80
2023/06/14 10:25:29;;;;;;;1.67;0.90;;;;;32.90;101653.00;;;;5070421;28;20673;-79
2023/06/14 10:28:14;;;;;;;1.75;1.10;;;;;32.90;101646.00;;;;5069520;28;20289;-78
2023/06/14 10:31:02;;;;;;;2.17;1.10;;;;;33.10;101649.00;;;;5069523;28;20591;-79
2023/06/14 10:33:30;;;;;;;1.58;1.15;;;;;33.10;101658.00;;;;5089937;28;20202;-78
2023/06/14 10:36:09;;;;;;;1.92;1.15;;;;;33.00;101653.00;;;;5089346;28;20202;-78
2023/06/14 10:38:38;;;;;;;0.98;0.70;;;;;33.10;101645.00;;;;5089630;28;20660;-77
2023/06/14 10:41:06;;;;;;;1.35;0.90;;;;;33.20;101645.00;;;;5088740;28;20221;-78
2023/06/14 10:43:33;;;;;;;2.42;1.30;;;;;33.20;101641.00;;;;5089694;28;20251;-79
2023/06/14 10:46:17;;;;;;;1.58;1.05;;;;;33.10;101645.00;;;;5089293;28;20641;-78
2023/06/14 10:48:46;;;;;;;2.30;1.00;;;;;33.20;101657.00;;;;5089866;28;20605;-80
2023/06/14 10:51:20;;;;;;;2.20;0.80;;;;;33.20;101652.00;;;;5089842;28;20198;-77
2023/06/14 10:53:48;;;;;;;2.55;0.93;;;;;33.20;101652.00;;;;5089965;28;20671;-80
2023/06/14 10:56:28;;;;;;;1.48;1.10;;;;;33.20;101659.00;;;;5088568;28;20610;-78
2023/06/14 10:58:56;;;;;;;1.38;1.10;;;;;33.20;101653.00;;;;5088713;28;20275;-80
2023/06/14 11:01:33;;;;;;;0.90;0.80;;;;;33.20;101647.00;;;;5088194;28;20228;-78
2023/06/14 11:04:09;;;;;;;1.20;1.00;;;;;33.10;101634.00;;;;5089256;28;20244;-79
2023/06/14 11:06:47;;;;;;;0.80;0.80;;;;;33.10;101643.00;;;;5088224;28;20285;-80
2023/06/14 11:09:47;;;;;;;1.55;0.98;;;;;33.00;101652.00;;;;5090098;28;20569;-80
2023/06/14 11:12:16;;;;;;;0.85;0.75;;;;;33.10;101647.00;;;;5088870;28;20201;-80
2023/06/14 11:14:46;;;;;;;1.48;0.90;;;;;33.10;101651.00;;;;5072704;28;20210;-80
2023/06/14 11:17:14;;;;;;;1.33;1.00;;;;;33.10;101641.00;;;;5068878;28;20285;-80
2023/06/14 11:19:42;;;;;;;2.65;1.23;;;;;33.10;101652.00;;;;5068522;28;20203;-80
2023/06/14 11:22:10;;;;;;;1.27;0.90;;;;;33.10;101641.00;;;;5067865;28;20230;-80
2023/06/14 11:24:37;;;;;;;0.98;0.88;;;;;33.10;101646.00;;;;5067822;28;20209;-79
2023/06/14 11:27:06;;;;;;;2.42;1.08;;;;;33.10;101635.00;;;;5068045;28;20206;-79
2023/06/14 11:29:33;;;;;;;1.45;0.80;;;;;33.10;101647.00;;;;5067481;28;20191;-80
2023/06/14 11:32:00;;;;;;;2.03;1.05;;;;;33.10;101649.00;;;;5080248;28;20225;-80
2023/06/14 11:34:28;;;;;;;2.55;1.30;;;;;33.10;101649.00;;;;5088108;28;20282;-79
2023/06/14 11:36:58;;;;;;;1.00;0.80;;;;;33.10;101629.00;;;;5087877;28;20198;-80
2023/06/14 11:39:27;;;;;;;1.27;1.00;;;;;33.10;101635.00;;;;5088613;28;20216;-79
2023/06/14 11:41:55;;;;;;;1.92;1.05;;;;;33.10;101637.00;;;;5088315;28;20647;-79
2023/06/14 11:44:23;;;;;;;1.10;1.00;;;;;33.10;101641.00;;;;5087985;28;20233;-79
2023/06/14 11:46:50;;;;;;;1.55;1.20;;;;;33.10;101622.00;;;;5087250;28;20337;-79
2023/06/14 11:49:17;;;;;;;1.35;1.00;;;;;33.10;101633.00;;;;5088489;28;20201;-79
2023/06/14 11:51:45;;;;;;;1.77;1.20;;;;;33.10;101626.00;;;;5088775;28;20197;-79
2023/06/14 11:54:13;;;;;;;1.02;0.90;;;;;33.10;101625.00;;;;5088766;28;20247;-80
2023/06/14 11:56:41;;;;;;;1.48;1.10;;;;;33.10;101627.00;;;;5088615;28;20217;-79
2023/06/14 11:59:08;;;;;;;0.82;0.80;;;;;33.10;101625.00;;;;5088286;28;20615;-79
2023/06/14 12:01:39;;;;;;;1.33;0.98;;;;;33.10;101632.00;;;;5087740;28;20222;-79
2023/06/14 12:04:06;;;;;;;1.77;0.90;;;;;33.20;101642.00;;;;5085821;28;20577;-80
2023/06/14 12:06:35;;;;;;;1.75;1.10;;;;;33.20;101642.00;;;;5067787;28;20213;-79
2023/06/14 12:09:06;;;;;;;1.90;1.13;;;;;33.10;101639.00;;;;5067090;28;20202;-80
2023/06/14 12:11:36;;;;;;;2.63;1.05;;;;;33.10;101630.00;;;;5067634;28;20298;-80
2023/06/14 12:14:05;;;;;;;1.73;1.08;;;;;33.10;101624.00;;;;5068763;28;20248;-80
2023/06/14 12:16:33;;;;;;;1.88;0.93;;;;;33.10;101626.00;;;;5067822;28;20206;-80